• location
  • image
mod_vvisit_countermod_vvisit_countermod_vvisit_countermod_vvisit_countermod_vvisit_countermod_vvisit_counter
mod_vvisit_counterToday171
mod_vvisit_counterYesterday1197
mod_vvisit_counterThis week5635
mod_vvisit_counterLast week7395
mod_vvisit_counterThis month21429
mod_vvisit_counterLast month21779
mod_vvisit_counterAll days563285

We have: 5 guests, 1 bots online
Your IP: 174.129.163.89
 , 
Today: Feb 25, 2017
Airport

AP V2 EN

 

 

You can watch a film about services of Siauliai International Airport

Today

Saturday, 25 February 2017

Weather Forecast

Siauliai °C
   

Aviation Weather Forecast

[source: ADDS]
METAR
EYSA 250420Z 26011KT 9999 FEW042 M03/M06 Q1002 R32R/29//95 R32L/29//95 BLU NOSIG =
TAF
TAF EYSA 250200Z 2503/2512 27016KT 9000 BKN030 =
SR / SS: 05:25 / 15:56 UTC (EYSA 2017-02-25)

Search

Who's Online

We have 6 guests online

tic logo en